createdAt,value
2023-03-05T00:01:32.639Z,7.93
2023-03-05T00:04:01.009Z,6.78
2023-03-05T00:06:30.210Z,5.63
2023-03-05T00:08:57.719Z,6.97
2023-03-05T00:11:28.930Z,6.53
2023-03-05T00:14:00.452Z,7.22
2023-03-05T00:16:30.955Z,8.00
2023-03-05T00:18:59.642Z,8.10
2023-03-05T00:21:31.602Z,6.90
2023-03-05T00:24:00.183Z,6.80
2023-03-05T00:26:30.944Z,6.65
2023-03-05T00:29:02.975Z,6.78
2023-03-05T00:31:32.122Z,7.10
2023-03-05T00:34:02.325Z,8.68
2023-03-05T00:36:30.321Z,7.32
2023-03-05T00:38:58.062Z,9.52
2023-03-05T00:41:25.606Z,7.63
2023-03-05T00:43:58.130Z,7.72
2023-03-05T00:46:28.195Z,7.80
2023-03-05T00:48:57.852Z,6.47
2023-03-05T00:51:25.654Z,7.93
2023-03-05T00:53:53.860Z,8.00
2023-03-05T00:56:23.823Z,7.70
2023-03-05T00:58:50.900Z,8.63
2023-03-05T01:01:18.280Z,7.88
2023-03-05T01:03:45.444Z,5.90
2023-03-05T01:06:15.953Z,4.53
2023-03-05T01:08:46.197Z,4.30
2023-03-05T01:11:13.639Z,4.90
2023-03-05T01:13:43.608Z,5.55
2023-03-05T01:16:15.368Z,5.20
2023-03-05T01:18:42.410Z,5.57
2023-03-05T01:21:12.494Z,4.50
2023-03-05T01:23:42.103Z,5.88
2023-03-05T01:26:09.448Z,5.40
2023-03-05T01:28:36.528Z,4.97
2023-03-05T01:31:07.655Z,4.78
2023-03-05T01:33:37.789Z,5.20
2023-03-05T01:36:13.013Z,5.10
2023-03-05T01:38:42.630Z,5.53
2023-03-05T01:41:10.854Z,5.03
2023-03-05T01:43:38.062Z,5.03
2023-03-05T01:46:24.069Z,6.00
2023-03-05T01:49:00.904Z,7.10
2023-03-05T01:51:36.664Z,8.05
2023-03-05T01:54:08.728Z,7.93
2023-03-05T01:56:36.725Z,7.13
2023-03-05T01:59:08.740Z,6.43
2023-03-05T02:01:46.084Z,6.53
2023-03-05T02:04:16.550Z,5.95
2023-03-05T02:06:45.610Z,5.07
2023-03-05T02:09:13.413Z,4.28
2023-03-05T02:11:41.304Z,4.22
2023-03-05T02:14:10.115Z,4.55
2023-03-05T02:16:39.327Z,4.05
2023-03-05T02:19:08.855Z,4.72
2023-03-05T02:21:45.245Z,4.15
2023-03-05T02:24:31.936Z,4.93
2023-03-05T02:27:02.902Z,5.28
2023-03-05T02:29:31.774Z,4.88
2023-03-05T02:31:59.794Z,5.60
2023-03-05T02:34:26.872Z,5.57
2023-03-05T02:36:54.165Z,5.57
2023-03-05T02:39:23.452Z,5.65
2023-03-05T02:41:50.761Z,6.18
2023-03-05T02:44:20.248Z,5.60
2023-03-05T02:46:47.964Z,5.30
2023-03-05T02:49:15.114Z,5.50
2023-03-05T02:51:42.455Z,5.53
2023-03-05T02:54:09.502Z,4.88
2023-03-05T02:56:36.881Z,4.93
2023-03-05T02:59:06.524Z,5.25
2023-03-05T03:01:36.233Z,4.68
2023-03-05T03:04:03.379Z,4.68
2023-03-05T03:06:32.929Z,4.22
2023-03-05T03:08:59.947Z,4.82
2023-03-05T03:11:29.575Z,5.65
2023-03-05T03:13:56.720Z,4.97
2023-03-05T03:16:26.433Z,4.82
2023-03-05T03:18:53.454Z,5.03
2023-03-05T03:21:26.465Z,5.05
2023-03-05T03:23:53.833Z,4.95
2023-03-05T03:26:23.620Z,5.28
2023-03-05T03:28:52.928Z,5.15
2023-03-05T03:31:22.537Z,5.07
2023-03-05T03:33:49.888Z,5.63
2023-03-05T03:36:17.277Z,5.80
2023-03-05T03:38:49.059Z,6.40
2023-03-05T03:41:17.051Z,5.60
2023-03-05T03:43:44.107Z,6.28
2023-03-05T03:46:11.775Z,6.28
2023-03-05T03:48:38.977Z,6.13
2023-03-05T03:51:07.598Z,6.25
2023-03-05T03:53:36.852Z,6.55
2023-03-05T03:56:04.560Z,6.82
2023-03-05T03:58:33.967Z,7.63
2023-03-05T04:03:43.464Z,8.05
2023-03-05T04:06:13.761Z,7.93
2023-03-05T04:08:43.369Z,8.32
2023-03-05T04:11:13.311Z,8.98
2023-03-05T04:13:42.815Z,8.68
2023-03-05T04:16:10.243Z,7.78
2023-03-05T04:18:39.703Z,7.80
2023-03-05T04:21:09.683Z,7.70
2023-03-05T04:23:36.839Z,7.88
2023-03-05T04:26:06.932Z,7.30
2023-03-05T04:28:34.313Z,7.85
2023-03-05T04:31:04.500Z,8.23
2023-03-05T04:33:33.773Z,7.28
2023-03-05T04:36:03.833Z,8.43
2023-03-05T04:38:30.929Z,8.25
2023-03-05T04:40:58.237Z,8.73
2023-03-05T04:43:25.660Z,10.25
2023-03-05T04:45:55.297Z,8.88
2023-03-05T04:48:25.932Z,8.40
2023-03-05T04:50:57.792Z,8.20
2023-03-05T04:53:26.111Z,5.97
2023-03-05T04:55:55.015Z,5.65
2023-03-05T04:58:23.168Z,5.97
2023-03-05T05:00:50.577Z,4.85
2023-03-05T05:03:17.687Z,4.60
2023-03-05T05:05:53.613Z,4.20
2023-03-05T05:08:20.667Z,4.28
2023-03-05T05:11:00.456Z,4.32
2023-03-05T05:13:28.285Z,3.60
2023-03-05T05:15:58.566Z,3.83
2023-03-05T05:18:28.338Z,3.42
2023-03-05T05:20:55.720Z,3.10
2023-03-05T05:23:22.812Z,4.50
2023-03-05T05:26:04.676Z,3.15
2023-03-05T05:28:35.115Z,3.53
2023-03-05T05:31:07.604Z,4.45
2023-03-05T05:33:34.757Z,4.43
2023-03-05T05:36:07.901Z,4.55
2023-03-05T05:38:35.473Z,4.30
2023-03-05T05:41:09.161Z,4.25
2023-03-05T05:43:38.950Z,4.60
2023-03-05T05:46:08.997Z,4.35
2023-03-05T05:48:39.188Z,3.80
2023-03-05T05:51:11.910Z,5.75
2023-03-05T05:53:41.764Z,4.20
2023-03-05T05:56:10.788Z,4.68
2023-03-05T05:58:39.497Z,3.90
2023-03-05T06:01:17.564Z,3.88
2023-03-05T06:03:46.985Z,3.30
2023-03-05T06:06:17.095Z,3.13
2023-03-05T06:08:47.262Z,3.58
2023-03-05T06:11:19.449Z,3.88
2023-03-05T06:13:49.507Z,3.13
2023-03-05T06:16:21.303Z,3.40
2023-03-05T06:18:51.179Z,3.05
2023-03-05T06:21:24.584Z,3.25
2023-03-05T06:23:54.716Z,2.15
2023-03-05T06:26:22.848Z,2.33
2023-03-05T06:28:50.517Z,3.15
2023-03-05T06:31:21.132Z,2.90
2023-03-05T06:33:49.582Z,2.55
2023-03-05T06:36:18.560Z,3.30
2023-03-05T06:38:49.161Z,2.97
2023-03-05T06:41:21.407Z,2.88
2023-03-05T06:43:50.815Z,2.70
2023-03-05T06:46:30.879Z,1.80
2023-03-05T06:49:00.667Z,2.72
2023-03-05T06:51:31.158Z,4.10
2023-03-05T06:54:04.355Z,2.42
2023-03-05T06:56:32.457Z,2.80
2023-03-05T06:58:59.543Z,2.75
2023-03-05T07:01:26.974Z,2.90
2023-03-05T07:03:55.620Z,3.67
2023-03-05T07:06:23.056Z,3.05
2023-03-05T07:08:50.339Z,2.80
2023-03-05T07:11:22.675Z,2.85
2023-03-05T07:13:54.238Z,2.88
2023-03-05T07:16:24.126Z,2.67
2023-03-05T07:18:51.945Z,2.90
2023-03-05T07:21:22.636Z,3.10
2023-03-05T07:23:49.872Z,2.30
2023-03-05T07:26:17.243Z,2.22
2023-03-05T07:28:44.319Z,2.28
2023-03-05T07:31:19.673Z,5.63
2023-03-05T07:33:50.569Z,3.33
2023-03-05T07:36:18.174Z,1.92
2023-03-05T07:38:46.151Z,2.20
2023-03-05T07:41:19.337Z,2.20
2023-03-05T07:43:48.096Z,2.63
2023-03-05T07:46:17.545Z,2.00
2023-03-05T07:48:44.769Z,2.15
2023-03-05T07:51:18.081Z,2.42
2023-03-05T07:53:47.724Z,2.20
2023-03-05T07:56:21.528Z,1.90
2023-03-05T07:58:50.801Z,2.13
2023-03-05T08:01:18.299Z,3.53
2023-03-05T08:03:47.860Z,2.30
2023-03-05T08:06:15.529Z,2.20
2023-03-05T08:08:45.206Z,2.05
2023-03-05T08:11:16.552Z,2.38
2023-03-05T08:13:44.894Z,2.05
2023-03-05T08:16:17.382Z,2.35
2023-03-05T08:18:45.212Z,3.58
2023-03-05T08:21:30.820Z,1.90
2023-03-05T08:23:58.313Z,2.10
2023-03-05T08:26:27.773Z,1.63
2023-03-05T08:28:58.039Z,1.90
2023-03-05T08:31:26.997Z,2.95
2023-03-05T08:33:55.480Z,2.45
2023-03-05T08:36:25.660Z,2.65
2023-03-05T08:38:52.708Z,1.67
2023-03-05T08:41:20.513Z,1.60
2023-03-05T08:43:48.240Z,1.48
2023-03-05T08:46:16.398Z,1.88
2023-03-05T08:48:46.214Z,2.10
2023-03-05T08:51:16.441Z,1.90
2023-03-05T08:53:44.613Z,2.67
2023-03-05T08:56:14.734Z,1.60
2023-03-05T08:58:42.137Z,2.28
2023-03-05T09:01:09.583Z,2.30
2023-03-05T09:03:36.618Z,2.03
2023-03-05T09:06:06.843Z,1.83
2023-03-05T09:08:34.405Z,2.22
2023-03-05T09:11:03.716Z,2.08
2023-03-05T09:13:33.788Z,2.03
2023-03-05T09:16:08.642Z,2.17
2023-03-05T09:18:38.154Z,1.98
2023-03-05T09:21:11.997Z,3.10
2023-03-05T09:26:11.564Z,2.15
2023-03-05T09:28:41.214Z,2.40
2023-03-05T09:31:11.847Z,2.00
2023-03-05T09:33:41.728Z,2.97
2023-03-05T09:36:20.322Z,2.50
2023-03-05T09:38:47.505Z,2.45
2023-03-05T09:41:27.682Z,2.63
2023-03-05T09:44:03.682Z,2.80
2023-03-05T09:46:41.136Z,2.70
2023-03-05T09:49:17.950Z,3.00
2023-03-05T09:51:50.331Z,2.30
2023-03-05T09:54:30.124Z,2.70
2023-03-05T09:57:03.385Z,2.47
2023-03-05T09:59:30.495Z,2.88
2023-03-05T10:02:11.019Z,2.53
2023-03-05T10:04:48.005Z,2.47
2023-03-05T10:07:26.343Z,2.90
2023-03-05T10:10:03.533Z,2.75
2023-03-05T10:12:50.794Z,2.65
2023-03-05T10:15:39.208Z,2.75
2023-03-05T10:18:18.417Z,3.03
2023-03-05T10:20:51.320Z,3.10
2023-03-05T10:23:29.206Z,3.30
2023-03-05T10:26:20.671Z,3.08
2023-03-05T10:29:12.499Z,2.50
2023-03-05T10:32:06.949Z,2.97
2023-03-05T10:35:13.266Z,2.60
2023-03-05T10:38:01.679Z,2.60
2023-03-05T10:40:45.384Z,2.70
2023-03-05T10:43:29.123Z,2.30
2023-03-05T10:46:00.277Z,2.15
2023-03-05T10:48:39.780Z,2.25
2023-03-05T10:51:45.294Z,2.30
2023-03-05T10:54:33.784Z,2.35
2023-03-05T10:57:19.848Z,1.98
2023-03-05T11:00:14.372Z,2.13
2023-03-05T11:03:09.781Z,2.05
2023-03-05T11:05:58.333Z,2.33
2023-03-05T11:08:33.282Z,2.50
2023-03-05T11:11:20.464Z,1.90
2023-03-05T11:14:02.066Z,2.28
2023-03-05T11:16:34.956Z,2.17
2023-03-05T11:19:14.217Z,2.50
2023-03-05T11:21:42.236Z,2.40
2023-03-05T11:24:14.389Z,2.95
2023-03-05T11:26:49.442Z,2.35
2023-03-05T11:29:23.064Z,2.10
2023-03-05T11:31:53.889Z,2.30
2023-03-05T11:34:23.154Z,2.33
2023-03-05T11:36:53.390Z,2.67
2023-03-05T11:39:22.968Z,2.70
2023-03-05T11:42:06.197Z,2.67
2023-03-05T11:44:47.643Z,2.67
2023-03-05T11:47:28.279Z,2.95
2023-03-05T11:50:04.512Z,2.33
2023-03-05T11:52:42.715Z,2.30
2023-03-05T11:55:40.833Z,2.17
2023-03-05T11:58:29.080Z,1.67
2023-03-05T12:00:56.949Z,1.85
2023-03-05T12:03:36.477Z,1.80
2023-03-05T12:06:17.631Z,2.17
2023-03-05T12:08:51.998Z,1.73
2023-03-05T12:11:39.473Z,1.60
2023-03-05T12:14:24.426Z,2.55
2023-03-05T12:17:20.135Z,1.55
2023-03-05T12:20:06.680Z,2.03
2023-03-05T12:22:40.909Z,1.65
2023-03-05T12:25:34.755Z,2.00
2023-03-05T12:28:02.629Z,1.90
2023-03-05T12:30:35.942Z,2.13
2023-03-05T12:33:27.288Z,1.70
2023-03-05T12:35:54.386Z,2.10
2023-03-05T12:38:34.035Z,2.03
2023-03-05T12:41:33.950Z,1.98
2023-03-05T12:44:18.001Z,1.65
2023-03-05T12:47:15.301Z,1.60
2023-03-05T12:49:46.151Z,2.05
2023-03-05T12:52:24.731Z,1.48
2023-03-05T12:55:01.599Z,1.88
2023-03-05T12:57:32.643Z,1.52
2023-03-05T13:00:10.519Z,1.80
2023-03-05T13:02:48.638Z,1.52
2023-03-05T13:05:24.546Z,1.90
2023-03-05T13:07:52.069Z,1.63
2023-03-05T13:10:27.040Z,1.80
2023-03-05T13:12:58.371Z,1.85
2023-03-05T13:15:26.715Z,2.08
2023-03-05T13:18:01.234Z,1.83
2023-03-05T13:20:34.439Z,1.90
2023-03-05T13:23:23.974Z,2.17
2023-03-05T13:26:03.743Z,1.83
2023-03-05T13:28:33.310Z,2.03
2023-03-05T13:31:11.840Z,2.85
2023-03-05T13:33:39.219Z,4.03
2023-03-05T13:36:14.679Z,1.92
2023-03-05T13:38:45.911Z,1.95
2023-03-05T13:41:16.142Z,2.65
2023-03-05T13:44:05.878Z,2.50
2023-03-05T13:46:35.864Z,2.50
2023-03-05T13:49:26.038Z,2.30
2023-03-05T13:51:56.269Z,2.22
2023-03-05T13:54:25.488Z,3.75
2023-03-05T13:56:58.491Z,2.42
2023-03-05T13:59:28.783Z,4.00
2023-03-05T14:02:01.460Z,2.25
2023-03-05T14:04:37.449Z,1.90
2023-03-05T14:07:24.230Z,3.25
2023-03-05T14:09:52.295Z,2.10
2023-03-05T14:12:28.345Z,2.05
2023-03-05T14:14:55.940Z,2.47
2023-03-05T14:17:32.830Z,2.50
2023-03-05T14:20:29.184Z,3.25
2023-03-05T14:23:00.979Z,2.20
2023-03-05T14:25:40.192Z,2.10
2023-03-05T14:28:26.385Z,2.00
2023-03-05T14:30:56.734Z,1.80
2023-03-05T14:33:30.521Z,1.90
2023-03-05T14:35:59.413Z,1.67
2023-03-05T14:38:34.542Z,1.80
2023-03-05T14:41:20.384Z,1.92
2023-03-05T14:43:50.136Z,1.73
2023-03-05T14:46:22.026Z,2.05
2023-03-05T14:48:49.547Z,3.65
2023-03-05T14:51:17.005Z,1.88
2023-03-05T14:53:49.271Z,2.20
2023-03-05T14:56:26.629Z,1.70
2023-03-05T14:58:57.001Z,2.08
2023-03-05T15:01:26.714Z,2.40
2023-03-05T15:03:56.766Z,2.20
2023-03-05T15:06:33.226Z,2.00
2023-03-05T15:09:01.652Z,1.88
2023-03-05T15:11:28.707Z,2.63
2023-03-05T15:13:56.648Z,2.05
2023-03-05T15:16:26.749Z,1.95
2023-03-05T15:18:56.288Z,2.00
2023-03-05T15:21:25.799Z,1.92
2023-03-05T15:23:53.236Z,2.00
2023-03-05T15:26:20.348Z,1.80
2023-03-05T15:28:48.000Z,1.90
2023-03-05T15:31:19.286Z,2.25
2023-03-05T15:33:46.684Z,1.98
2023-03-05T15:36:16.137Z,2.00
2023-03-05T15:38:46.165Z,2.55
2023-03-05T15:41:13.374Z,1.90
2023-03-05T15:43:42.981Z,2.33
2023-03-05T15:46:10.072Z,4.75
2023-03-05T15:48:40.591Z,3.30
2023-03-05T15:51:08.568Z,3.47
2023-03-05T15:53:35.972Z,3.80
2023-03-05T15:56:03.249Z,4.10
2023-03-05T15:58:33.019Z,3.38
2023-03-05T16:01:02.413Z,3.65
2023-03-05T16:03:32.348Z,3.42
2023-03-05T16:06:02.863Z,3.60
2023-03-05T16:08:30.592Z,3.42
2023-03-05T16:11:00.508Z,4.45
2023-03-05T16:13:29.413Z,3.60
2023-03-05T16:15:59.374Z,3.70
2023-03-05T16:18:27.345Z,3.53
2023-03-05T16:20:55.417Z,4.47
2023-03-05T16:23:28.726Z,4.20
2023-03-05T16:25:59.667Z,6.40
2023-03-05T16:28:27.284Z,4.53
2023-03-05T16:30:57.925Z,4.03
2023-03-05T16:33:25.330Z,6.10
2023-03-05T16:36:19.787Z,5.40
2023-03-05T16:38:49.575Z,4.55
2023-03-05T16:41:17.353Z,3.63
2023-03-05T16:43:47.495Z,4.32
2023-03-05T16:46:17.169Z,3.95
2023-03-05T16:48:44.914Z,4.05
2023-03-05T16:51:12.954Z,4.63
2023-03-05T16:53:42.829Z,4.30
2023-03-05T16:56:12.514Z,4.07
2023-03-05T16:58:43.029Z,4.15
2023-03-05T17:01:12.511Z,4.30
2023-03-05T17:03:42.463Z,4.22
2023-03-05T17:06:21.020Z,3.88
2023-03-05T17:08:51.459Z,4.45
2023-03-05T17:11:19.739Z,4.40
2023-03-05T17:13:49.157Z,4.63
2023-03-05T17:16:18.372Z,4.50
2023-03-05T17:18:45.935Z,5.03
2023-03-05T17:21:13.193Z,5.20
2023-03-05T17:23:41.197Z,6.28
2023-03-05T17:26:11.591Z,5.85
2023-03-05T17:28:39.181Z,8.32
2023-03-05T17:31:08.661Z,5.95
2023-03-05T17:33:36.386Z,5.93
2023-03-05T17:36:06.375Z,5.57
2023-03-05T17:38:33.724Z,4.75
2023-03-05T17:41:03.281Z,5.07
2023-03-05T17:43:30.695Z,5.75
2023-03-05T17:46:00.375Z,4.90
2023-03-05T17:48:28.524Z,4.38
2023-03-05T17:50:55.861Z,3.95
2023-03-05T17:53:26.280Z,4.38
2023-03-05T17:55:53.614Z,5.43
2023-03-05T17:58:21.177Z,3.92
2023-03-05T18:00:52.743Z,3.28
2023-03-05T18:03:20.283Z,3.50
2023-03-05T18:05:47.320Z,3.75
2023-03-05T18:08:14.680Z,4.32
2023-03-05T18:10:42.089Z,4.25
2023-03-05T18:13:09.572Z,3.80
2023-03-05T18:15:38.971Z,4.10
2023-03-05T18:18:06.398Z,4.47
2023-03-05T18:20:36.095Z,7.40
2023-03-05T18:23:06.091Z,3.47
2023-03-05T18:25:33.406Z,3.65
2023-03-05T18:28:07.415Z,3.38
2023-03-05T18:30:41.247Z,3.55
2023-03-05T18:33:13.697Z,3.50
2023-03-05T18:35:46.296Z,4.25
2023-03-05T18:38:13.744Z,8.10
2023-03-05T18:40:41.041Z,4.20
2023-03-05T18:43:10.856Z,4.60
2023-03-05T18:45:40.277Z,5.05
2023-03-05T18:48:07.906Z,4.47
2023-03-05T18:50:35.058Z,5.60
2023-03-05T18:53:03.008Z,6.03
2023-03-05T18:55:32.679Z,6.82
2023-03-05T18:58:00.287Z,6.38
2023-03-05T19:00:30.043Z,6.78
2023-03-05T19:02:58.026Z,7.30
2023-03-05T19:05:26.197Z,7.38
2023-03-05T19:07:56.217Z,6.60
2023-03-05T19:10:23.928Z,6.00
2023-03-05T19:12:53.870Z,7.45
2023-03-05T19:15:21.696Z,8.18
2023-03-05T19:17:49.604Z,12.95
2023-03-05T19:20:17.582Z,7.60
2023-03-05T19:22:50.224Z,5.82
2023-03-05T19:25:22.227Z,5.85
2023-03-05T19:27:49.736Z,5.53
2023-03-05T19:30:20.063Z,5.68
2023-03-05T19:32:47.638Z,4.90
2023-03-05T19:35:16.122Z,5.57
2023-03-05T19:37:43.694Z,4.97
2023-03-05T19:40:11.903Z,5.00
2023-03-05T19:42:39.356Z,4.82
2023-03-05T19:45:07.289Z,4.68
2023-03-05T19:47:37.802Z,4.80
2023-03-05T19:50:07.645Z,4.53
2023-03-05T19:52:35.060Z,5.25
2023-03-05T19:55:02.130Z,4.40
2023-03-05T19:57:32.062Z,4.45
2023-03-05T20:00:01.392Z,3.63
2023-03-05T20:02:28.823Z,4.47
2023-03-05T20:04:56.006Z,4.05
2023-03-05T20:07:23.394Z,4.30
2023-03-05T20:09:50.548Z,4.68
2023-03-05T20:12:17.979Z,4.55
2023-03-05T20:14:45.023Z,5.90
2023-03-05T20:17:15.357Z,4.60
2023-03-05T20:19:45.037Z,4.93
2023-03-05T20:22:12.481Z,4.32
2023-03-05T20:24:39.590Z,4.10
2023-03-05T20:27:09.302Z,4.25
2023-03-05T20:29:38.862Z,3.92
2023-03-05T20:32:08.498Z,3.55
2023-03-05T20:34:35.633Z,3.67
2023-03-05T20:37:03.073Z,3.25
2023-03-05T20:39:30.201Z,3.40
2023-03-05T20:41:57.642Z,13.73
2023-03-05T20:44:24.784Z,8.18
2023-03-05T20:46:52.211Z,6.45
2023-03-05T20:49:21.501Z,3.45
2023-03-05T20:51:49.577Z,2.90
2023-03-05T20:54:17.029Z,3.75
2023-03-05T20:56:44.484Z,3.58
2023-03-05T20:59:14.000Z,4.57
2023-03-05T21:01:41.592Z,7.43
2023-03-05T21:04:08.988Z,8.30
2023-03-05T21:06:37.037Z,8.40
2023-03-05T21:09:04.415Z,10.98
2023-03-05T21:11:31.948Z,11.15
2023-03-05T21:13:58.974Z,11.07
2023-03-05T21:16:27.590Z,9.85
2023-03-05T21:18:55.219Z,11.10
2023-03-05T21:21:22.978Z,10.73
2023-03-05T21:23:52.917Z,11.20
2023-03-05T21:26:22.795Z,15.77
2023-03-05T21:28:54.385Z,17.33
2023-03-05T21:31:23.085Z,17.80
2023-03-05T21:33:50.304Z,14.48
2023-03-05T21:36:18.275Z,8.52
2023-03-05T21:38:47.311Z,5.90
2023-03-05T21:41:15.114Z,5.10
2023-03-05T21:43:45.057Z,4.45
2023-03-05T21:46:12.869Z,4.05
2023-03-05T21:48:42.503Z,5.15
2023-03-05T21:51:10.091Z,4.43
2023-03-05T21:53:39.577Z,3.88
2023-03-05T21:56:10.908Z,4.32
2023-03-05T21:58:40.506Z,4.38
2023-03-05T22:01:07.921Z,4.63
2023-03-05T22:03:35.070Z,4.80
2023-03-05T22:06:08.402Z,6.70
2023-03-05T22:08:35.479Z,5.20
2023-03-05T22:11:10.975Z,6.03
2023-03-05T22:13:38.561Z,6.28
2023-03-05T22:16:06.648Z,7.47
2023-03-05T22:18:34.035Z,7.18
2023-03-05T22:21:01.989Z,6.75
2023-03-05T22:23:32.289Z,6.97
2023-03-05T22:26:04.445Z,6.40
2023-03-05T22:28:35.180Z,7.03
2023-03-05T22:31:02.649Z,6.82
2023-03-05T22:33:30.310Z,19.85
2023-03-05T22:36:00.762Z,13.13
2023-03-05T22:38:27.862Z,7.35
2023-03-05T22:40:55.251Z,7.00
2023-03-05T22:43:24.499Z,6.78
2023-03-05T22:45:51.849Z,6.88
2023-03-05T22:48:18.894Z,6.90
2023-03-05T22:50:46.262Z,15.52
2023-03-05T22:53:31.237Z,7.40
2023-03-05T22:55:58.589Z,6.00
2023-03-05T22:58:27.983Z,6.53
2023-03-05T23:00:55.385Z,6.15
2023-03-05T23:03:25.567Z,6.03
2023-03-05T23:05:53.011Z,6.53
2023-03-05T23:08:22.589Z,6.43
2023-03-05T23:10:52.350Z,6.28
2023-03-05T23:13:21.723Z,6.63
2023-03-05T23:15:51.693Z,7.13
2023-03-05T23:18:18.860Z,6.35
2023-03-05T23:20:46.267Z,6.50
2023-03-05T23:23:15.822Z,6.05
2023-03-05T23:25:43.225Z,6.53
2023-03-05T23:28:10.334Z,6.57
2023-03-05T23:30:39.226Z,6.43
2023-03-05T23:33:14.932Z,6.18
2023-03-05T23:35:51.428Z,6.32
2023-03-05T23:38:19.023Z,6.68
2023-03-05T23:40:52.608Z,6.65
2023-03-05T23:43:24.350Z,7.35
2023-03-05T23:45:52.822Z,6.03
2023-03-05T23:48:22.990Z,6.40
2023-03-05T23:50:50.400Z,10.48
2023-03-05T23:53:29.543Z,12.70
2023-03-05T23:56:01.622Z,7.63
2023-03-05T23:58:28.728Z,6.03
